Time;durP1;ratioP1;P1;durP2;ratioP2;P2;SDS_P1;SDS_P2;PMS_P1;PMS_P2;Temp;Humidity;BMP_temperature;BMP_pressure;BME280_temperature;BME280_humidity;BME280_pressure;Samples;Min_cycle;Max_cycle;Signal;HPM_P1;HPM_P2
2019/08/14 00:02:01;;;;;;;3.11;2.20;;;;;;;22.40;54.49;100887.34;;;;-52
2019/08/14 00:05:01;;;;;;;3.42;2.07;;;;;;;22.40;54.48;100883.70;;;;-52
2019/08/14 00:08:01;;;;;;;2.85;2.22;;;;;;;22.40;54.51;100875.38;;;;-52
2019/08/14 00:11:01;;;;;;;2.67;2.16;;;;;;;22.39;54.48;100875.41;;;;-51
2019/08/14 00:14:01;;;;;;;2.27;1.96;;;;;;;22.39;54.56;100881.14;;;;-51
2019/08/14 00:17:01;;;;;;;2.51;2.17;;;;;;;22.39;54.49;100881.58;;;;-56
2019/08/14 00:20:01;;;;;;;2.69;2.10;;;;;;;22.38;54.47;100879.86;;;;-51
2019/08/14 00:23:01;;;;;;;3.53;2.21;;;;;;;22.39;54.47;100881.06;;;;-51
2019/08/14 00:26:01;;;;;;;2.45;2.25;;;;;;;22.38;54.50;100875.91;;;;-56
2019/08/14 00:29:01;;;;;;;2.46;2.21;;;;;;;22.39;54.46;100870.80;;;;-51
2019/08/14 00:32:01;;;;;;;2.45;2.09;;;;;;;22.38;54.56;100864.37;;;;-57
2019/08/14 00:35:01;;;;;;;2.40;2.13;;;;;;;22.38;54.49;100859.32;;;;-57
2019/08/14 00:38:01;;;;;;;2.65;2.24;;;;;;;22.38;54.52;100857.64;;;;-54
2019/08/14 00:41:01;;;;;;;2.36;2.16;;;;;;;22.37;54.51;100857.36;;;;-51
2019/08/14 00:44:01;;;;;;;2.29;2.05;;;;;;;22.37;54.52;100865.11;;;;-51
2019/08/14 00:47:01;;;;;;;3.39;2.10;;;;;;;22.37;54.55;100865.61;;;;-52
2019/08/14 00:50:01;;;;;;;2.50;1.94;;;;;;;22.37;54.58;100872.52;;;;-52
2019/08/14 00:53:01;;;;;;;2.21;1.96;;;;;;;22.38;54.53;100864.37;;;;-54
2019/08/14 00:56:01;;;;;;;3.01;2.09;;;;;;;22.36;54.55;100859.52;;;;-52
2019/08/14 00:59:01;;;;;;;2.25;2.03;;;;;;;22.37;54.56;100861.80;;;;-51
2019/08/14 01:02:17;;;;;;;2.39;2.01;;;;;;;22.37;54.59;100861.73;;;;-54
2019/08/14 01:05:02;;;;;;;2.41;2.07;;;;;;;22.36;54.58;100859.58;;;;-54
2019/08/14 01:08:01;;;;;;;2.39;1.90;;;;;;;22.36;54.55;100865.57;;;;-57
2019/08/14 01:11:01;;;;;;;2.23;2.03;;;;;;;22.36;54.57;100861.94;;;;-54
2019/08/14 01:14:01;;;;;;;2.56;2.07;;;;;;;22.36;54.56;100862.27;;;;-54
2019/08/14 01:17:01;;;;;;;2.93;2.20;;;;;;;22.35;54.60;100860.48;;;;-51
2019/08/14 01:20:01;;;;;;;2.47;2.05;;;;;;;22.35;54.57;100859.71;;;;-51
2019/08/14 01:23:01;;;;;;;3.09;2.18;;;;;;;22.36;54.66;100857.55;;;;-51
2019/08/14 01:26:01;;;;;;;2.16;1.94;;;;;;;22.35;54.65;100859.81;;;;-54
2019/08/14 01:29:01;;;;;;;2.15;1.93;;;;;;;22.35;54.55;100864.86;;;;-53
2019/08/14 01:32:01;;;;;;;2.16;1.96;;;;;;;22.35;54.57;100864.86;;;;-57
2019/08/14 01:35:01;;;;;;;2.28;2.08;;;;;;;22.34;54.54;100866.00;;;;-56
2019/08/14 01:38:01;;;;;;;2.03;1.86;;;;;;;22.34;54.62;100865.33;;;;-54
2019/08/14 01:41:00;;;;;;;1.97;1.77;;;;;;;22.34;54.65;100862.63;;;;-52
2019/08/14 01:44:01;;;;;;;2.31;2.01;;;;;;;22.34;54.64;100860.64;;;;-54
2019/08/14 01:47:01;;;;;;;2.15;1.87;;;;;;;22.34;54.64;100862.63;;;;-50
2019/08/14 01:50:01;;;;;;;2.28;2.08;;;;;;;22.34;54.67;100860.52;;;;-50
2019/08/14 01:53:01;;;;;;;2.13;1.88;;;;;;;22.34;54.64;100858.73;;;;-57
2019/08/14 01:56:01;;;;;;;1.99;1.81;;;;;;;22.34;54.63;100855.70;;;;-51
2019/08/14 01:59:01;;;;;;;2.42;2.10;;;;;;;22.33;54.61;100853.30;;;;-56
2019/08/14 02:02:06;;;;;;;1.98;1.80;;;;;;;22.33;54.64;100851.12;;;;-51
2019/08/14 02:05:06;;;;;;;2.09;1.89;;;;;;;22.33;54.69;100855.22;;;;-52
2019/08/14 02:08:01;;;;;;;2.54;1.97;;;;;;;22.33;54.72;100853.47;;;;-52
2019/08/14 02:11:01;;;;;;;2.17;1.97;;;;;;;22.32;54.67;100860.84;;;;-52
2019/08/14 02:14:01;;;;;;;2.02;1.85;;;;;;;22.33;54.71;100862.89;;;;-52
2019/08/14 02:17:01;;;;;;;2.09;1.89;;;;;;;22.33;54.66;100866.16;;;;-52
2019/08/14 02:20:01;;;;;;;1.97;1.77;;;;;;;22.33;54.68;100867.61;;;;-51
2019/08/14 02:23:01;;;;;;;2.18;1.87;;;;;;;22.33;54.68;100862.39;;;;-54
2019/08/14 02:26:01;;;;;;;2.31;2.05;;;;;;;22.33;54.64;100865.48;;;;-51
2019/08/14 02:29:01;;;;;;;2.16;1.96;;;;;;;22.32;54.69;100868.14;;;;-57
2019/08/14 02:32:01;;;;;;;2.25;2.05;;;;;;;22.33;54.65;100867.17;;;;-57
2019/08/14 02:35:01;;;;;;;2.22;2.00;;;;;;;22.32;54.71;100859.49;;;;-50
2019/08/14 02:38:01;;;;;;;2.10;1.90;;;;;;;22.32;54.71;100859.73;;;;-52
2019/08/14 02:41:01;;;;;;;2.03;1.80;;;;;;;22.32;54.67;100861.01;;;;-51
2019/08/14 02:44:01;;;;;;;2.23;2.03;;;;;;;22.32;54.66;100860.50;;;;-52
2019/08/14 02:47:01;;;;;;;2.45;2.00;;;;;;;22.32;54.70;100860.56;;;;-51
2019/08/14 02:50:01;;;;;;;2.08;1.90;;;;;;;22.31;54.70;100857.84;;;;-54
2019/08/14 02:53:01;;;;;;;1.82;1.72;;;;;;;22.31;54.69;100856.25;;;;-56
2019/08/14 02:56:00;;;;;;;1.87;1.76;;;;;;;22.32;54.73;100858.31;;;;-53
2019/08/14 03:01:00;;;;;;;2.09;1.80;;;;;;;22.31;54.72;100852.62;;;;-51
2019/08/14 03:04:01;;;;;;;2.21;2.01;;;;;;;22.31;54.74;100852.72;;;;-54
2019/08/14 03:07:01;;;;;;;2.18;1.89;;;;;;;22.30;54.75;100849.48;;;;-51
2019/08/14 03:10:01;;;;;;;1.95;1.80;;;;;;;22.30;54.73;100847.86;;;;-54
2019/08/14 03:13:01;;;;;;;2.23;2.03;;;;;;;22.30;54.68;100848.14;;;;-51
2019/08/14 03:16:01;;;;;;;2.81;1.89;;;;;;;22.30;54.71;100850.26;;;;-51
2019/08/14 03:19:01;;;;;;;2.30;2.10;;;;;;;22.30;54.78;100849.92;;;;-51
2019/08/14 03:22:01;;;;;;;2.10;1.90;;;;;;;22.30;54.69;100847.64;;;;-52
2019/08/14 03:25:01;;;;;;;2.03;1.83;;;;;;;22.30;54.76;100846.80;;;;-54
2019/08/14 03:28:01;;;;;;;2.97;1.83;;;;;;;22.29;54.73;100845.84;;;;-54
2019/08/14 03:31:00;;;;;;;2.13;1.73;;;;;;;22.29;54.80;100850.22;;;;-56
2019/08/14 03:34:01;;;;;;;2.11;1.79;;;;;;;22.28;54.71;100853.38;;;;-57
2019/08/14 03:37:01;;;;;;;2.07;1.85;;;;;;;22.30;54.75;100854.30;;;;-56
2019/08/14 03:40:01;;;;;;;2.10;1.90;;;;;;;22.29;54.80;100853.82;;;;-55
2019/08/14 03:43:01;;;;;;;2.12;1.92;;;;;;;22.28;54.74;100850.59;;;;-54
2019/08/14 03:46:01;;;;;;;1.87;1.71;;;;;;;22.29;54.79;100853.21;;;;-51
2019/08/14 03:49:00;;;;;;;2.74;1.81;;;;;;;22.29;54.80;100858.70;;;;-52
2019/08/14 03:52:01;;;;;;;2.16;1.96;;;;;;;22.28;54.78;100865.39;;;;-57
2019/08/14 03:55:01;;;;;;;1.87;1.77;;;;;;;22.28;54.80;100865.22;;;;-51
2019/08/14 03:58:01;;;;;;;1.86;1.76;;;;;;;22.28;54.79;100866.91;;;;-51
2019/08/14 04:01:01;;;;;;;1.95;1.79;;;;;;;22.29;54.79;100863.30;;;;-50
2019/08/14 04:04:01;;;;;;;1.91;1.78;;;;;;;22.28;54.82;100864.62;;;;-56
2019/08/14 04:07:01;;;;;;;1.74;1.64;;;;;;;22.27;54.78;100864.84;;;;-57
2019/08/14 04:10:00;;;;;;;1.89;1.79;;;;;;;22.27;54.78;100865.69;;;;-52
2019/08/14 04:13:01;;;;;;;2.05;1.85;;;;;;;22.27;54.80;100872.02;;;;-51
2019/08/14 04:16:01;;;;;;;1.96;1.81;;;;;;;22.27;54.82;100870.50;;;;-51
2019/08/14 04:19:01;;;;;;;1.93;1.77;;;;;;;22.27;54.80;100870.91;;;;-52
2019/08/14 04:22:01;;;;;;;1.81;1.66;;;;;;;22.27;54.84;100877.23;;;;-56
2019/08/14 04:25:01;;;;;;;2.01;1.79;;;;;;;22.26;54.80;100878.03;;;;-52
2019/08/14 04:28:00;;;;;;;1.88;1.77;;;;;;;22.26;54.83;100875.91;;;;-57
2019/08/14 04:31:01;;;;;;;2.02;1.88;;;;;;;22.27;54.79;100876.79;;;;-51
2019/08/14 04:34:01;;;;;;;1.85;1.75;;;;;;;22.27;54.76;100879.08;;;;-51
2019/08/14 04:37:01;;;;;;;1.92;1.81;;;;;;;22.26;54.86;100878.61;;;;-54
2019/08/14 04:40:01;;;;;;;2.33;1.88;;;;;;;22.27;54.84;100880.22;;;;-51
2019/08/14 04:43:01;;;;;;;1.80;1.70;;;;;;;22.26;54.90;100885.67;;;;-51
2019/08/14 04:46:01;;;;;;;2.01;1.77;;;;;;;22.26;54.93;100883.58;;;;-51
2019/08/14 04:49:00;;;;;;;1.91;1.81;;;;;;;22.26;54.93;100883.31;;;;-56
2019/08/14 04:52:00;;;;;;;1.93;1.81;;;;;;;22.26;54.92;100882.20;;;;-51
2019/08/14 04:55:01;;;;;;;3.85;2.86;;;;;;;21.88;51.48;100885.00;;;;-51
2019/08/14 04:58:01;;;;;;;4.53;3.13;;;;;;;21.62;50.86;100886.09;;;;-51
2019/08/14 05:01:01;;;;;;;4.42;3.29;;;;;;;21.47;51.04;100889.55;;;;-52
2019/08/14 05:04:01;;;;;;;4.40;3.09;;;;;;;21.28;51.03;100886.40;;;;-51
2019/08/14 05:07:00;;;;;;;5.01;3.43;;;;;;;21.17;51.29;100884.06;;;;-55
2019/08/14 05:10:01;;;;;;;4.56;3.31;;;;;;;21.04;51.49;100889.00;;;;-54
2019/08/14 05:13:01;;;;;;;5.61;3.25;;;;;;;20.96;51.47;100888.03;;;;-52
2019/08/14 05:16:01;;;;;;;3.77;3.35;;;;;;;20.90;51.54;100883.56;;;;-52
2019/08/14 05:19:01;;;;;;;6.31;3.72;;;;;;;20.84;51.88;100882.61;;;;-55
2019/08/14 05:22:01;;;;;;;4.83;3.45;;;;;;;20.80;52.07;100885.45;;;;-52
2019/08/14 05:25:01;;;;;;;4.43;3.31;;;;;;;20.72;52.18;100888.33;;;;-50
2019/08/14 05:28:00;;;;;;;4.51;3.22;;;;;;;20.68;52.18;100891.34;;;;-54
2019/08/14 05:31:01;;;;;;;4.93;3.40;;;;;;;20.60;52.56;100891.91;;;;-54
2019/08/14 05:34:01;;;;;;;6.93;3.44;;;;;;;20.57;52.41;100893.45;;;;-51
2019/08/14 05:37:01;;;;;;;6.21;3.46;;;;;;;20.54;52.63;100903.44;;;;-51
2019/08/14 05:40:01;;;;;;;7.48;3.31;;;;;;;20.52;52.83;100904.33;;;;-54
2019/08/14 05:43:01;;;;;;;6.83;3.18;;;;;;;20.74;52.79;100913.61;;;;-48
2019/08/14 05:46:01;;;;;;;4.41;3.29;;;;;;;20.80;53.17;100916.94;;;;-50
2019/08/14 05:49:00;;;;;;;5.83;3.13;;;;;;;20.89;53.28;100921.89;;;;-49
2019/08/14 05:52:01;;;;;;;7.39;3.11;;;;;;;21.03;53.27;100921.43;;;;-49
2019/08/14 05:55:01;;;;;;;5.30;3.16;;;;;;;21.14;53.08;100929.72;;;;-50
2019/08/14 05:58:01;;;;;;;8.02;3.01;;;;;;;21.23;53.12;100934.39;;;;-55
2019/08/14 06:01:01;;;;;;;3.76;2.80;;;;;;;21.29;53.08;100937.28;;;;-55
2019/08/14 06:04:00;;;;;;;6.41;2.70;;;;;;;21.36;52.96;100937.77;;;;-52
2019/08/14 06:07:00;;;;;;;4.46;2.81;;;;;;;21.42;52.91;100942.63;;;;-56
2019/08/14 06:10:01;;;;;;;4.46;2.96;;;;;;;21.45;53.00;100940.81;;;;-55
2019/08/14 06:13:01;;;;;;;3.85;2.82;;;;;;;21.49;52.94;100939.75;;;;-55
2019/08/14 06:16:01;;;;;;;3.69;2.67;;;;;;;21.52;52.99;100939.38;;;;-55
2019/08/14 06:19:01;;;;;;;4.71;2.79;;;;;;;21.55;52.95;100943.20;;;;-54
2019/08/14 06:22:00;;;;;;;5.21;2.75;;;;;;;21.58;53.05;100940.52;;;;-55
2019/08/14 06:25:01;;;;;;;5.71;2.80;;;;;;;21.61;53.03;100943.80;;;;-54
2019/08/14 06:28:01;;;;;;;3.21;2.75;;;;;;;21.63;53.08;100946.14;;;;-55
2019/08/14 06:31:01;;;;;;;4.51;2.75;;;;;;;21.65;53.07;100948.34;;;;-56
2019/08/14 06:34:01;;;;;;;4.37;2.60;;;;;;;21.67;53.14;100949.61;;;;-55
2019/08/14 06:37:01;;;;;;;3.87;2.83;;;;;;;21.69;53.13;100955.64;;;;-55
2019/08/14 06:40:00;;;;;;;3.59;2.65;;;;;;;21.71;53.17;100958.02;;;;-55
2019/08/14 06:43:01;;;;;;;4.35;2.73;;;;;;;21.73;53.17;100963.25;;;;-55
2019/08/14 06:46:00;;;;;;;3.49;2.63;;;;;;;21.74;53.21;100962.25;;;;-55
2019/08/14 06:49:00;;;;;;;3.02;2.41;;;;;;;21.75;53.15;100964.41;;;;-55
2019/08/14 06:52:01;;;;;;;2.87;2.30;;;;;;;21.76;53.31;100961.66;;;;-56
2019/08/14 06:55:01;;;;;;;3.65;2.60;;;;;;;21.77;53.65;100959.45;;;;-57
2019/08/14 06:58:00;;;;;;;3.18;2.65;;;;;;;21.81;53.67;100961.88;;;;-56
2019/08/14 07:01:00;;;;;;;8.71;2.77;;;;;;;21.82;54.14;100961.35;;;;-56
2019/08/14 07:04:01;;;;;;;4.23;2.52;;;;;;;21.83;54.12;100956.66;;;;-56
2019/08/14 07:07:01;;;;;;;4.07;2.65;;;;;;;21.84;54.18;100956.06;;;;-56
2019/08/14 07:10:00;;;;;;;4.51;2.50;;;;;;;21.85;53.96;100961.89;;;;-53
2019/08/14 07:13:01;;;;;;;5.47;2.86;;;;;;;21.86;54.19;100964.62;;;;-55
2019/08/14 07:16:01;;;;;;;7.23;2.69;;;;;;;21.88;54.15;100961.41;;;;-53
2019/08/14 07:19:00;;;;;;;5.09;2.47;;;;;;;21.89;54.18;100961.45;;;;-53
2019/08/14 07:22:00;;;;;;;4.53;2.51;;;;;;;21.90;54.07;100957.83;;;;-53
2019/08/14 07:25:01;;;;;;;4.43;2.54;;;;;;;21.92;54.11;100964.27;;;;-55
2019/08/14 07:28:01;;;;;;;5.05;2.65;;;;;;;21.92;53.96;100961.28;;;;-53
2019/08/14 07:31:01;;;;;;;4.75;2.77;;;;;;;21.93;54.02;100962.19;;;;-54
2019/08/14 07:34:01;;;;;;;5.25;2.57;;;;;;;21.94;53.95;100964.05;;;;-55
2019/08/14 07:37:00;;;;;;;3.51;2.47;;;;;;;21.95;53.93;100967.19;;;;-56
2019/08/14 07:40:00;;;;;;;4.07;2.45;;;;;;;21.95;53.92;100967.02;;;;-53
2019/08/14 07:43:00;;;;;;;3.38;2.50;;;;;;;21.95;53.95;100964.06;;;;-56
2019/08/14 07:46:01;;;;;;;3.59;2.35;;;;;;;21.96;53.92;100966.22;;;;-56
2019/08/14 07:49:01;;;;;;;4.20;2.52;;;;;;;21.98;53.94;100973.27;;;;-52
2019/08/14 07:52:01;;;;;;;4.00;2.46;;;;;;;21.98;53.93;100980.40;;;;-53
2019/08/14 07:55:00;;;;;;;2.52;2.25;;;;;;;21.98;53.91;100983.53;;;;-55
2019/08/14 07:58:00;;;;;;;3.71;2.46;;;;;;;21.99;53.91;100982.97;;;;-55
2019/08/14 08:01:01;;;;;;;4.07;2.61;;;;;;;22.00;53.90;100983.84;;;;-52
2019/08/14 08:04:00;;;;;;;3.62;2.39;;;;;;;22.00;53.83;100991.70;;;;-55
2019/08/14 08:07:01;;;;;;;3.21;2.57;;;;;;;22.01;53.83;100996.94;;;;-53
2019/08/14 08:10:01;;;;;;;3.21;2.33;;;;;;;22.02;53.90;100996.55;;;;-52
2019/08/14 08:13:00;;;;;;;4.43;2.55;;;;;;;22.02;53.85;101001.02;;;;-52
2019/08/14 08:16:00;;;;;;;3.49;2.43;;;;;;;22.02;53.87;101002.03;;;;-52
2019/08/14 08:19:01;;;;;;;4.36;2.28;;;;;;;22.02;53.88;101002.20;;;;-54
2019/08/14 08:22:01;;;;;;;3.33;2.25;;;;;;;22.02;53.86;100993.89;;;;-53
2019/08/14 08:25:01;;;;;;;3.38;2.17;;;;;;;22.03;53.88;100997.37;;;;-53
2019/08/14 08:28:01;;;;;;;2.54;2.33;;;;;;;22.03;53.86;100999.48;;;;-52
2019/08/14 08:31:01;;;;;;;4.43;2.30;;;;;;;22.04;53.91;100999.49;;;;-52
2019/08/14 08:34:00;;;;;;;4.31;2.43;;;;;;;22.04;54.04;101002.12;;;;-49
2019/08/14 08:37:00;;;;;;;3.62;2.20;;;;;;;22.04;54.01;101013.39;;;;-49
2019/08/14 08:40:00;;;;;;;5.06;2.34;;;;;;;22.04;53.98;101016.92;;;;-50
2019/08/14 08:43:00;;;;;;;3.42;2.50;;;;;;;22.05;54.09;101019.38;;;;-51
2019/08/14 08:46:01;;;;;;;2.43;2.21;;;;;;;22.07;54.15;101023.84;;;;-49
2019/08/14 08:49:01;;;;;;;3.57;2.37;;;;;;;22.08;54.10;101017.27;;;;-57
2019/08/14 08:52:00;;;;;;;3.22;2.41;;;;;;;22.08;54.18;101017.50;;;;-57
2019/08/14 08:55:00;;;;;;;2.54;2.34;;;;;;;22.08;54.23;101013.63;;;;-56
2019/08/14 08:58:00;;;;;;;3.03;2.35;;;;;;;22.09;54.11;101009.63;;;;-57
2019/08/14 09:01:01;;;;;;;5.93;2.41;;;;;;;22.10;54.02;101013.14;;;;-56
2019/08/14 09:04:01;;;;;;;2.87;2.37;;;;;;;22.09;54.10;101008.89;;;;-56
2019/08/14 09:07:01;;;;;;;3.91;2.51;;;;;;;22.10;54.10;101010.02;;;;-55
2019/08/14 09:10:01;;;;;;;3.87;2.45;;;;;;;22.11;54.08;101011.17;;;;-55
2019/08/14 09:13:00;;;;;;;3.28;2.04;;;;;;;22.10;54.11;101011.80;;;;-51
2019/08/14 09:16:00;;;;;;;3.34;2.31;;;;;;;22.09;54.11;101010.23;;;;-52
2019/08/14 09:19:01;;;;;;;2.57;2.09;;;;;;;22.08;54.15;101004.81;;;;-52
2019/08/14 09:22:00;;;;;;;4.05;2.32;;;;;;;22.06;54.24;101001.37;;;;-56
2019/08/14 09:25:00;;;;;;;2.36;2.09;;;;;;;22.06;54.26;101002.31;;;;-52
2019/08/14 09:28:01;;;;;;;2.67;2.19;;;;;;;22.06;54.22;100999.24;;;;-52
2019/08/14 09:31:00;;;;;;;2.79;2.15;;;;;;;22.05;54.25;101006.87;;;;-51
2019/08/14 09:34:00;;;;;;;3.57;2.20;;;;;;;22.05;54.23;101004.08;;;;-52
2019/08/14 09:37:00;;;;;;;4.36;2.13;;;;;;;22.04;54.32;101002.89;;;;-55
2019/08/14 09:40:00;;;;;;;2.62;2.31;;;;;;;22.05;54.29;101001.66;;;;-55
2019/08/14 09:43:00;;;;;;;2.23;1.92;;;;;;;22.03;54.34;100996.53;;;;-52
2019/08/14 09:46:01;;;;;;;2.41;2.21;;;;;;;22.04;54.28;100994.22;;;;-54
2019/08/14 09:49:00;;;;;;;2.57;2.09;;;;;;;22.04;54.27;100995.28;;;;-51
2019/08/14 09:52:01;;;;;;;2.22;2.02;;;;;;;22.05;54.34;100994.42;;;;-54
2019/08/14 09:55:00;;;;;;;2.37;2.10;;;;;;;22.04;54.35;100984.90;;;;-54
2019/08/14 09:58:00;;;;;;;2.40;2.00;;;;;;;22.04;54.31;100984.80;;;;-56
2019/08/14 10:01:02;;;;;;;4.13;2.29;;;;;;;22.04;54.31;100977.83;;;;-52
2019/08/14 10:04:00;;;;;;;3.75;2.19;;;;;;;22.04;54.31;100973.36;;;;-51
2019/08/14 10:07:01;;;;;;;5.14;2.37;;;;;;;22.04;54.39;100969.72;;;;-56
2019/08/14 10:10:01;;;;;;;3.64;2.19;;;;;;;22.04;54.37;100969.83;;;;-55
2019/08/14 10:13:00;;;;;;;3.15;2.02;;;;;;;22.04;54.34;100966.46;;;;-56
2019/08/14 10:16:00;;;;;;;5.39;2.27;;;;;;;22.04;54.37;100959.45;;;;-52
2019/08/14 10:19:00;;;;;;;3.85;2.20;;;;;;;22.04;54.37;100962.48;;;;-51
2019/08/14 10:22:00;;;;;;;3.19;2.13;;;;;;;22.03;54.31;100958.18;;;;-51
2019/08/14 10:25:01;;;;;;;3.71;2.03;;;;;;;22.04;54.41;100953.01;;;;-56
2019/08/14 10:28:01;;;;;;;2.75;2.12;;;;;;;22.04;54.35;100961.58;;;;-51
2019/08/14 10:31:01;;;;;;;3.65;2.08;;;;;;;22.04;54.35;100960.74;;;;-52
2019/08/14 10:34:01;;;;;;;3.49;2.14;;;;;;;22.03;54.41;100958.28;;;;-56
2019/08/14 10:37:00;;;;;;;2.36;2.03;;;;;;;22.04;54.33;100956.20;;;;-56
2019/08/14 10:40:00;;;;;;;3.82;2.29;;;;;;;22.03;54.38;100949.94;;;;-55
2019/08/14 10:43:00;;;;;;;3.77;2.31;;;;;;;22.02;54.33;100946.03;;;;-55
2019/08/14 10:46:00;;;;;;;4.79;2.10;;;;;;;22.03;54.35;100942.53;;;;-56
2019/08/14 10:49:00;;;;;;;3.57;2.03;;;;;;;22.03;54.41;100938.05;;;;-51
2019/08/14 10:52:01;;;;;;;2.64;2.00;;;;;;;22.03;54.39;100935.14;;;;-56
2019/08/14 10:55:00;;;;;;;2.21;2.01;;;;;;;22.03;54.37;100933.01;;;;-55
2019/08/14 10:58:00;;;;;;;2.73;1.91;;;;;;;22.03;54.35;100930.32;;;;-51
2019/08/14 11:01:00;;;;;;;2.79;1.91;;;;;;;22.03;54.40;100929.14;;;;-55
2019/08/14 11:04:00;;;;;;;2.31;2.05;;;;;;;22.02;54.35;100925.67;;;;-51
2019/08/14 11:07:00;;;;;;;3.83;2.07;;;;;;;22.02;54.37;100921.97;;;;-52
2019/08/14 11:10:00;;;;;;;2.60;2.07;;;;;;;22.03;54.35;100922.25;;;;-52
2019/08/14 11:13:01;;;;;;;2.46;1.87;;;;;;;22.02;54.36;100920.30;;;;-55
2019/08/14 11:16:00;;;;;;;3.62;2.10;;;;;;;22.03;54.39;100918.48;;;;-51
2019/08/14 11:19:00;;;;;;;3.11;2.13;;;;;;;22.02;54.41;100916.59;;;;-55
2019/08/14 11:22:00;;;;;;;2.78;2.09;;;;;;;22.02;54.37;100911.87;;;;-52
2019/08/14 11:25:01;;;;;;;2.75;2.15;;;;;;;22.02;54.46;100908.69;;;;-55
2019/08/14 11:32:05;;;;;;;2.37;1.96;;;;;;;22.02;54.39;100897.92;;;;-51
2019/08/14 11:35:00;;;;;;;2.45;1.97;;;;;;;22.02;54.45;100896.75;;;;-52
2019/08/14 11:38:00;;;;;;;2.47;1.97;;;;;;;22.03;54.47;100896.95;;;;-51
2019/08/14 11:41:00;;;;;;;2.61;1.90;;;;;;;22.03;54.42;100895.38;;;;-56
2019/08/14 11:44:00;;;;;;;2.18;1.91;;;;;;;22.03;54.37;100890.56;;;;-51
2019/08/14 11:47:00;;;;;;;1.95;1.82;;;;;;;22.03;54.43;100882.55;;;;-52
2019/08/14 11:50:00;;;;;;;2.27;1.95;;;;;;;22.03;54.38;100887.43;;;;-55
2019/08/14 11:53:00;;;;;;;2.68;1.90;;;;;;;22.02;54.47;100880.19;;;;-56
2019/08/14 11:56:01;;;;;;;2.17;1.80;;;;;;;22.03;54.46;100883.39;;;;-55
2019/08/14 11:59:00;;;;;;;2.57;1.94;;;;;;;22.02;54.48;100876.89;;;;-55
2019/08/14 12:02:00;;;;;;;2.23;1.91;;;;;;;22.02;54.51;100873.36;;;;-52
2019/08/14 12:05:00;;;;;;;2.52;1.97;;;;;;;22.03;54.45;100869.59;;;;-51
2019/08/14 12:08:00;;;;;;;1.95;1.81;;;;;;;22.02;54.51;100866.47;;;;-56
2019/08/14 12:11:00;;;;;;;2.02;1.82;;;;;;;22.02;54.45;100862.27;;;;-54
2019/08/14 12:14:00;;;;;;;2.36;1.87;;;;;;;22.03;54.44;100857.16;;;;-54
2019/08/14 12:17:01;;;;;;;2.04;1.84;;;;;;;22.02;54.45;100853.18;;;;-51
2019/08/14 12:20:00;;;;;;;2.11;1.89;;;;;;;22.03;54.48;100850.93;;;;-54
2019/08/14 12:23:00;;;;;;;2.39;1.76;;;;;;;22.03;54.47;100850.09;;;;-55
2019/08/14 12:26:00;;;;;;;2.18;1.90;;;;;;;22.03;54.47;100843.63;;;;-55
2019/08/14 12:29:00;;;;;;;1.91;1.81;;;;;;;22.03;54.48;100840.34;;;;-56
2019/08/14 12:32:00;;;;;;;2.10;1.90;;;;;;;22.02;54.49;100843.09;;;;-51
2019/08/14 12:35:00;;;;;;;2.59;2.03;;;;;;;22.03;54.51;100837.98;;;;-51
2019/08/14 12:38:01;;;;;;;2.04;1.90;;;;;;;22.03;54.53;100834.82;;;;-52
2019/08/14 12:41:00;;;;;;;1.80;1.69;;;;;;;22.03;54.49;100833.04;;;;-51
2019/08/14 12:44:00;;;;;;;1.83;1.70;;;;;;;22.03;54.49;100832.12;;;;-52
2019/08/14 12:47:00;;;;;;;2.09;1.88;;;;;;;22.03;54.48;100829.34;;;;-51
2019/08/14 12:50:00;;;;;;;2.13;1.92;;;;;;;22.04;54.42;100830.45;;;;-51
2019/08/14 12:53:00;;;;;;;2.00;1.80;;;;;;;22.03;54.44;100826.08;;;;-55
2019/08/14 12:56:01;;;;;;;2.03;1.74;;;;;;;22.03;54.52;100821.36;;;;-54
2019/08/14 12:59:00;;;;;;;2.11;1.71;;;;;;;22.03;54.52;100815.14;;;;-56
2019/08/14 13:02:00;;;;;;;2.00;1.80;;;;;;;22.04;54.54;100817.20;;;;-56
2019/08/14 13:05:00;;;;;;;1.77;1.67;;;;;;;22.04;54.44;100814.51;;;;-51
2019/08/14 13:08:00;;;;;;;1.81;1.71;;;;;;;22.04;54.51;100810.20;;;;-56
2019/08/14 13:11:00;;;;;;;2.24;1.76;;;;;;;22.04;54.45;100807.11;;;;-52
2019/08/14 13:14:00;;;;;;;2.10;1.82;;;;;;;22.04;54.45;100807.84;;;;-51
2019/08/14 13:17:01;;;;;;;1.75;1.65;;;;;;;22.04;54.42;100801.97;;;;-55
2019/08/14 13:20:00;;;;;;;1.72;1.62;;;;;;;22.04;54.48;100795.40;;;;-52
2019/08/14 13:23:00;;;;;;;1.72;1.60;;;;;;;22.04;54.43;100792.98;;;;-55
2019/08/14 13:26:00;;;;;;;2.33;1.92;;;;;;;22.05;54.47;100793.31;;;;-55
2019/08/14 13:29:00;;;;;;;2.17;1.69;;;;;;;22.04;54.51;100788.17;;;;-52
2019/08/14 13:32:00;;;;;;;1.70;1.60;;;;;;;22.04;54.53;100786.99;;;;-55
2019/08/14 13:35:00;;;;;;;2.08;1.88;;;;;;;22.05;54.45;100784.34;;;;-56
2019/08/14 13:38:00;;;;;;;1.81;1.65;;;;;;;22.05;54.51;100780.14;;;;-51
2019/08/14 13:41:00;;;;;;;2.01;1.78;;;;;;;22.05;54.44;100774.02;;;;-51
2019/08/14 13:44:00;;;;;;;1.70;1.60;;;;;;;22.05;54.52;100767.35;;;;-50
2019/08/14 13:47:00;;;;;;;1.84;1.70;;;;;;;22.05;54.46;100763.08;;;;-55
2019/08/14 13:50:01;;;;;;;1.74;1.64;;;;;;;22.05;54.49;100759.27;;;;-50
2019/08/14 13:53:01;;;;;;;2.10;1.63;;;;;;;22.06;54.44;100760.05;;;;-51
2019/08/14 13:56:01;;;;;;;2.10;1.88;;;;;;;22.05;54.50;100757.26;;;;-52
2019/08/14 13:59:00;;;;;;;1.77;1.67;;;;;;;22.06;54.48;100753.77;;;;-56
2019/08/14 14:02:00;;;;;;;1.92;1.73;;;;;;;22.06;54.48;100748.72;;;;-55
2019/08/14 14:05:00;;;;;;;1.74;1.64;;;;;;;22.06;54.50;100746.77;;;;-51
2019/08/14 14:08:00;;;;;;;1.99;1.64;;;;;;;22.06;54.51;100741.25;;;;-55
2019/08/14 14:11:00;;;;;;;1.78;1.63;;;;;;;22.06;54.50;100738.13;;;;-56
2019/08/14 14:14:00;;;;;;;1.99;1.70;;;;;;;22.06;54.47;100737.28;;;;-54
2019/08/14 14:17:00;;;;;;;2.89;1.54;;;;;;;22.05;54.52;100727.42;;;;-55
2019/08/14 14:20:00;;;;;;;1.87;1.73;;;;;;;22.06;54.49;100721.47;;;;-55
2019/08/14 14:23:00;;;;;;;2.04;1.66;;;;;;;22.06;54.47;100719.86;;;;-52
2019/08/14 14:26:00;;;;;;;1.70;1.58;;;;;;;22.06;54.49;100720.47;;;;-50
2019/08/14 14:29:00;;;;;;;1.70;1.60;;;;;;;22.05;54.51;100721.77;;;;-52
2019/08/14 14:32:01;;;;;;;1.71;1.61;;;;;;;22.07;54.45;100719.89;;;;-56
2019/08/14 14:35:00;;;;;;;1.79;1.68;;;;;;;22.06;54.56;100719.63;;;;-51
2019/08/14 14:38:00;;;;;;;1.64;1.54;;;;;;;22.06;54.55;100711.21;;;;-55
2019/08/14 14:41:00;;;;;;;1.70;1.60;;;;;;;22.07;54.54;100706.77;;;;-55
2019/08/14 14:44:00;;;;;;;2.07;1.70;;;;;;;22.06;54.56;100704.41;;;;-55
2019/08/14 14:47:00;;;;;;;1.74;1.59;;;;;;;22.07;54.45;100702.23;;;;-52
2019/08/14 14:50:00;;;;;;;1.98;1.60;;;;;;;22.07;54.49;100697.69;;;;-51
2019/08/14 14:53:00;;;;;;;1.63;1.53;;;;;;;22.07;54.52;100693.66;;;;-56
2019/08/14 14:56:00;;;;;;;1.70;1.60;;;;;;;22.07;54.52;100688.27;;;;-51
2019/08/14 14:59:00;;;;;;;1.86;1.76;;;;;;;22.06;54.50;100686.66;;;;-55
2019/08/14 15:02:00;;;;;;;1.69;1.59;;;;;;;22.07;54.52;100689.28;;;;-50
2019/08/14 15:05:00;;;;;;;1.60;1.50;;;;;;;22.07;54.50;100690.30;;;;-55
2019/08/14 15:08:00;;;;;;;1.67;1.57;;;;;;;22.07;54.52;100683.66;;;;-55
2019/08/14 15:11:00;;;;;;;1.67;1.57;;;;;;;22.07;54.56;100680.80;;;;-51
2019/08/14 15:14:00;;;;;;;1.63;1.53;;;;;;;22.07;54.55;100676.60;;;;-52
2019/08/14 15:17:00;;;;;;;1.68;1.58;;;;;;;22.07;54.59;100672.06;;;;-55
2019/08/14 15:20:00;;;;;;;1.53;1.43;;;;;;;22.07;54.55;100672.13;;;;-56
2019/08/14 15:23:00;;;;;;;1.90;1.60;;;;;;;22.07;54.62;100673.73;;;;-51
2019/08/14 15:26:00;;;;;;;1.60;1.50;;;;;;;22.08;54.57;100675.70;;;;-54
2019/08/14 15:29:00;;;;;;;1.59;1.49;;;;;;;22.08;54.61;100673.27;;;;-55
2019/08/14 15:32:01;;;;;;;1.71;1.61;;;;;;;22.08;54.54;100673.27;;;;-55
2019/08/14 15:35:00;;;;;;;1.60;1.50;;;;;;;22.08;54.61;100670.92;;;;-55
2019/08/14 15:38:00;;;;;;;1.69;1.59;;;;;;;22.08;54.63;100671.32;;;;-52
2019/08/14 15:41:00;;;;;;;1.66;1.50;;;;;;;22.08;54.56;100668.80;;;;-52
2019/08/14 15:44:00;;;;;;;1.59;1.49;;;;;;;22.08;54.63;100667.79;;;;-51
2019/08/14 15:47:00;;;;;;;1.71;1.50;;;;;;;22.07;54.58;100669.88;;;;-51
2019/08/14 15:50:00;;;;;;;2.37;1.60;;;;;;;22.08;54.57;100661.50;;;;-56
2019/08/14 15:53:00;;;;;;;2.87;1.61;;;;;;;22.08;54.58;100657.63;;;;-51
2019/08/14 15:56:00;;;;;;;3.26;1.43;;;;;;;22.08;54.59;100654.33;;;;-51
2019/08/14 15:59:00;;;;;;;1.87;1.51;;;;;;;22.08;54.57;100646.77;;;;-51
2019/08/14 16:02:00;;;;;;;1.64;1.54;;;;;;;22.08;54.57;100648.45;;;;-55
2019/08/14 16:05:00;;;;;;;1.80;1.50;;;;;;;22.08;54.59;100648.61;;;;-55
2019/08/14 16:08:00;;;;;;;3.23;1.54;;;;;;;22.08;54.56;100648.65;;;;-52
2019/08/14 16:11:00;;;;;;;1.71;1.59;;;;;;;22.08;54.59;100644.24;;;;-55
2019/08/14 16:14:00;;;;;;;1.65;1.55;;;;;;;22.08;54.64;100639.02;;;;-55
2019/08/14 16:17:00;;;;;;;2.47;1.57;;;;;;;22.08;54.55;100637.84;;;;-51
2019/08/14 16:20:00;;;;;;;2.43;1.49;;;;;;;22.09;54.63;100637.98;;;;-52
2019/08/14 16:23:00;;;;;;;2.44;1.47;;;;;;;22.09;54.61;100632.00;;;;-52
2019/08/14 16:26:00;;;;;;;1.50;1.40;;;;;;;22.09;54.65;100626.89;;;;-50
2019/08/14 16:29:00;;;;;;;2.79;1.47;;;;;;;22.09;54.58;100631.36;;;;-51
2019/08/14 16:32:00;;;;;;;3.39;1.57;;;;;;;22.09;54.60;100628.40;;;;-51
2019/08/14 16:35:00;;;;;;;3.27;1.57;;;;;;;22.08;54.65;100626.52;;;;-51
2019/08/14 16:38:00;;;;;;;1.60;1.50;;;;;;;22.09;54.61;100616.36;;;;-51
2019/08/14 16:41:00;;;;;;;2.81;1.46;;;;;;;22.09;54.66;100618.20;;;;-51
2019/08/14 16:44:00;;;;;;;1.60;1.50;;;;;;;22.09;54.64;100615.85;;;;-50
2019/08/14 16:47:00;;;;;;;1.57;1.47;;;;;;;22.09;54.64;100612.25;;;;-52
2019/08/14 16:50:00;;;;;;;1.62;1.52;;;;;;;22.09;54.62;100609.80;;;;-51